Overton Beach, Nevada
Current Conditions -  °F | °C
As of 4:18 AM on Thursday 18 Dec 2014 (Local Time) from KLSV Reporting Station
Overcast Overcast  
Wind Chill: 44°   Ceiling: 4900
Heat Index: 48°   Visibility: 10mi
Dew Point: 45°   Wind: 9mph
Humidity: 87%   Direction: 70°ENE
Pressure: 30.1"   Gusts: NA
Location:  36.5809°N, 114.605°W
Report Text: KLSV 181218Z AUTO 07008KT 10SM BKN049 OVC090 09/07 A3010 RMK AO2 $
Loading
Personal Weather Stations






























Interactive Weather Map New forecast layout! Learn more

10-Day Weather Forecast

Advertisements
Track Severe Weather on mobile